createdAt,value
2022-12-25T00:00:29.840Z,6.33
2022-12-25T00:02:59.883Z,6.35
2022-12-25T00:05:28.386Z,6.32
2022-12-25T00:07:56.751Z,6.22
2022-12-25T00:10:25.219Z,6.18
2022-12-25T00:12:53.589Z,6.19
2022-12-25T00:15:21.994Z,6.12
2022-12-25T00:17:50.378Z,6.05
2022-12-25T00:20:20.339Z,6.04
2022-12-25T00:22:48.699Z,6.00
2022-12-25T00:25:17.211Z,5.96
2022-12-25T00:27:45.578Z,6.00
2022-12-25T00:30:14.240Z,5.95
2022-12-25T00:32:42.636Z,5.92
2022-12-25T00:35:11.141Z,5.92
2022-12-25T00:37:40.863Z,5.92
2022-12-25T00:40:10.575Z,5.90
2022-12-25T00:42:38.945Z,5.85
2022-12-25T00:45:08.159Z,5.81
2022-12-25T00:47:36.599Z,5.82
2022-12-25T00:50:05.930Z,5.79
2022-12-25T00:52:34.446Z,5.83
2022-12-25T00:55:04.198Z,5.74
2022-12-25T00:57:34.283Z,5.71
2022-12-25T01:00:02.647Z,5.67
2022-12-25T01:02:31.431Z,5.71
2022-12-25T01:04:59.883Z,5.73
2022-12-25T01:07:28.758Z,5.71
2022-12-25T01:10:14.424Z,5.66
2022-12-25T01:12:44.775Z,5.62
2022-12-25T01:15:13.849Z,5.63
2022-12-25T01:17:42.642Z,5.57
2022-12-25T01:20:12.768Z,5.54
2022-12-25T01:22:41.341Z,5.52
2022-12-25T01:25:10.605Z,5.49
2022-12-25T01:27:39.385Z,5.46
2022-12-25T01:30:10.656Z,5.32
2022-12-25T01:32:39.054Z,5.27
2022-12-25T01:35:08.118Z,5.21
2022-12-25T01:37:36.522Z,5.15
2022-12-25T01:40:05.771Z,5.12
2022-12-25T01:42:34.298Z,5.10
2022-12-25T01:45:36.181Z,5.08
2022-12-25T01:48:09.667Z,5.07
2022-12-25T01:50:40.591Z,5.06
2022-12-25T01:53:09.435Z,4.97
2022-12-25T01:55:39.527Z,4.90
2022-12-25T01:58:07.957Z,4.82
2022-12-25T02:00:36.676Z,4.76
2022-12-25T02:03:07.201Z,4.69
2022-12-25T02:05:36.527Z,4.58
2022-12-25T02:08:09.425Z,4.53
2022-12-25T02:10:39.131Z,4.49
2022-12-25T02:13:08.643Z,4.45
2022-12-25T02:15:48.278Z,4.42
2022-12-25T02:18:26.125Z,4.35
2022-12-25T02:21:10.262Z,4.30
2022-12-25T02:24:07.503Z,4.25
2022-12-25T02:26:56.225Z,4.26
2022-12-25T02:29:31.820Z,4.23
2022-12-25T02:32:06.636Z,4.21
2022-12-25T02:34:40.876Z,4.17
2022-12-25T02:37:17.138Z,4.14
2022-12-25T02:39:57.908Z,4.14
2022-12-25T02:42:54.949Z,4.16
2022-12-25T02:45:47.429Z,4.16
2022-12-25T02:48:35.478Z,4.16
2022-12-25T02:51:24.456Z,4.13
2022-12-25T02:54:13.246Z,4.15
2022-12-25T02:57:03.022Z,4.13
2022-12-25T02:59:51.435Z,4.18
2022-12-25T03:02:44.183Z,4.13
2022-12-25T03:05:34.070Z,4.10
2022-12-25T03:08:08.168Z,4.09
2022-12-25T03:10:58.851Z,4.05
2022-12-25T03:13:32.245Z,4.04
2022-12-25T03:16:18.677Z,4.04
2022-12-25T03:18:48.685Z,4.02
2022-12-25T03:21:34.799Z,3.99
2022-12-25T03:24:17.185Z,3.91
2022-12-25T03:26:58.344Z,3.88
2022-12-25T03:29:47.229Z,3.92
2022-12-25T03:32:22.786Z,3.89
2022-12-25T03:35:21.287Z,3.82
2022-12-25T03:38:18.447Z,3.84
2022-12-25T03:41:16.054Z,3.79
2022-12-25T03:44:10.920Z,3.79
2022-12-25T03:47:06.661Z,3.80
2022-12-25T03:50:02.258Z,3.77
2022-12-25T03:52:51.673Z,3.74
2022-12-25T03:55:39.145Z,3.71
2022-12-25T03:58:36.093Z,3.67
2022-12-25T04:01:22.804Z,3.64
2022-12-25T04:04:08.135Z,3.65
2022-12-25T04:06:54.077Z,3.60
2022-12-25T04:09:41.573Z,3.66
2022-12-25T04:12:35.651Z,3.64
2022-12-25T04:15:28.988Z,3.64
2022-12-25T04:18:14.914Z,3.64
2022-12-25T04:21:00.582Z,3.60
2022-12-25T04:23:46.367Z,3.59
2022-12-25T04:26:33.548Z,3.56
2022-12-25T04:29:19.339Z,3.50
2022-12-25T04:32:05.483Z,3.45
2022-12-25T04:34:51.143Z,3.37
2022-12-25T04:37:19.645Z,3.23
2022-12-25T04:39:48.039Z,3.12
2022-12-25T04:42:18.069Z,2.98
2022-12-25T04:44:46.426Z,2.92
2022-12-25T04:47:14.832Z,2.92
2022-12-25T04:49:43.299Z,3.00
2022-12-25T04:52:11.712Z,2.97
2022-12-25T04:54:40.226Z,3.02
2022-12-25T04:57:08.699Z,2.93
2022-12-25T04:59:38.422Z,2.91
2022-12-25T05:02:06.907Z,2.90
2022-12-25T05:04:35.475Z,2.95
2022-12-25T05:07:03.924Z,2.93
2022-12-25T05:09:32.292Z,2.91
2022-12-25T05:12:00.655Z,2.87
2022-12-25T05:14:29.179Z,2.78
2022-12-25T05:16:58.978Z,2.77
2022-12-25T05:19:28.066Z,2.67
2022-12-25T05:21:56.638Z,2.61
2022-12-25T05:24:27.705Z,2.51
2022-12-25T05:26:56.129Z,2.47
2022-12-25T05:29:24.590Z,2.44
2022-12-25T05:31:52.953Z,2.40
2022-12-25T05:34:22.728Z,2.35
2022-12-25T05:36:51.074Z,2.31
2022-12-25T05:39:19.601Z,2.28
2022-12-25T05:41:47.995Z,2.25
2022-12-25T05:44:16.472Z,2.21
2022-12-25T05:46:44.901Z,2.18
2022-12-25T05:49:13.596Z,2.13
2022-12-25T05:51:43.360Z,2.07
2022-12-25T05:54:11.749Z,1.98
2022-12-25T05:56:40.255Z,1.94
2022-12-25T05:59:08.624Z,1.91
2022-12-25T06:01:37.073Z,1.88
2022-12-25T06:04:10.308Z,1.82
2022-12-25T06:06:40.942Z,1.75
2022-12-25T06:09:13.295Z,1.67
2022-12-25T06:11:41.989Z,1.64
2022-12-25T06:14:12.413Z,1.60
2022-12-25T06:16:40.901Z,1.57
2022-12-25T06:19:09.630Z,1.56
2022-12-25T06:21:38.166Z,1.55
2022-12-25T06:24:07.101Z,1.56
2022-12-25T06:26:36.967Z,1.58
2022-12-25T06:29:05.561Z,1.64
2022-12-25T06:31:34.374Z,1.71
2022-12-25T06:34:02.885Z,1.75
2022-12-25T06:36:31.236Z,1.75
2022-12-25T06:39:02.196Z,1.78
2022-12-25T06:41:31.574Z,1.79
2022-12-25T06:44:02.457Z,1.80
2022-12-25T06:46:31.457Z,1.77
2022-12-25T06:49:00.406Z,1.73
2022-12-25T06:51:31.093Z,1.70
2022-12-25T06:53:59.919Z,1.69
2022-12-25T06:56:29.561Z,1.63
2022-12-25T06:58:59.359Z,1.59
2022-12-25T07:01:31.753Z,1.56
2022-12-25T07:04:03.591Z,1.52
2022-12-25T07:06:32.228Z,1.51
2022-12-25T07:09:00.735Z,1.49
2022-12-25T07:11:29.172Z,1.48
2022-12-25T07:13:57.561Z,1.44
2022-12-25T07:16:26.146Z,1.41
2022-12-25T07:18:55.971Z,1.39
2022-12-25T07:21:24.335Z,1.39
2022-12-25T07:23:52.799Z,1.40
2022-12-25T07:26:21.195Z,1.42
2022-12-25T07:28:49.577Z,1.45
2022-12-25T07:31:19.094Z,1.49
2022-12-25T07:33:47.529Z,1.54
2022-12-25T07:36:17.794Z,1.57
2022-12-25T07:38:49.691Z,1.59
2022-12-25T07:41:18.956Z,1.61
2022-12-25T07:43:50.772Z,1.63
2022-12-25T07:46:20.146Z,1.66
2022-12-25T07:48:48.642Z,1.72
2022-12-25T07:51:18.407Z,1.76
2022-12-25T07:53:47.278Z,1.77
2022-12-25T07:56:18.118Z,1.82
2022-12-25T07:58:46.850Z,1.85
2022-12-25T08:01:18.192Z,1.82
2022-12-25T08:03:50.492Z,1.79
2022-12-25T08:06:21.163Z,1.79
2022-12-25T08:08:49.998Z,1.79
2022-12-25T08:11:18.376Z,1.78
2022-12-25T08:13:46.838Z,1.78
2022-12-25T08:16:15.467Z,1.82
2022-12-25T08:18:44.423Z,1.85
2022-12-25T08:21:15.620Z,1.89
2022-12-25T08:23:47.243Z,1.90
2022-12-25T08:26:17.979Z,1.93
2022-12-25T08:28:46.459Z,1.95
2022-12-25T08:31:17.656Z,1.95
2022-12-25T08:33:46.237Z,1.96
2022-12-25T08:36:16.766Z,1.97
2022-12-25T08:38:47.425Z,1.99
2022-12-25T08:41:16.605Z,1.99
2022-12-25T08:43:45.117Z,2.02
2022-12-25T08:46:13.840Z,1.99
2022-12-25T08:48:45.838Z,1.95
2022-12-25T08:51:17.119Z,1.95
2022-12-25T08:53:48.730Z,1.93
2022-12-25T08:56:18.595Z,1.94
2022-12-25T08:58:47.373Z,2.03
2022-12-25T09:01:16.024Z,2.07
2022-12-25T09:03:44.599Z,2.06
2022-12-25T09:06:15.357Z,2.07
2022-12-25T09:08:49.065Z,2.04
2022-12-25T09:11:20.774Z,1.98
2022-12-25T09:13:50.023Z,1.96
2022-12-25T09:16:21.447Z,1.97
2022-12-25T09:18:50.598Z,1.94
2022-12-25T09:21:20.174Z,1.92
2022-12-25T09:23:48.963Z,1.96
2022-12-25T09:26:20.293Z,2.00
2022-12-25T09:28:52.288Z,2.05
2022-12-25T09:31:22.612Z,2.04
2022-12-25T09:34:00.476Z,2.06
2022-12-25T09:36:31.828Z,2.08
2022-12-25T09:39:00.381Z,2.09
2022-12-25T09:41:35.077Z,2.06
2022-12-25T09:44:07.497Z,2.00
2022-12-25T09:46:41.947Z,1.99
2022-12-25T09:49:20.099Z,1.98
2022-12-25T09:51:54.414Z,1.94
2022-12-25T09:54:25.936Z,1.93
2022-12-25T09:56:56.087Z,1.95
2022-12-25T09:59:26.116Z,1.92
2022-12-25T10:02:07.783Z,1.89
2022-12-25T10:04:52.288Z,1.84
2022-12-25T10:07:36.063Z,1.81
2022-12-25T10:10:22.591Z,1.81
2022-12-25T10:13:00.481Z,1.85
2022-12-25T10:15:40.496Z,1.85
2022-12-25T10:18:48.402Z,1.87
2022-12-25T10:21:20.683Z,1.91
2022-12-25T10:23:55.394Z,1.91
2022-12-25T10:26:25.464Z,1.94
2022-12-25T10:29:02.195Z,1.99
2022-12-25T10:31:34.862Z,2.04
2022-12-25T10:34:04.097Z,2.13
2022-12-25T10:36:33.031Z,2.21
2022-12-25T10:39:01.587Z,2.30
2022-12-25T10:41:42.736Z,2.36
2022-12-25T10:44:20.345Z,2.36
2022-12-25T10:46:51.043Z,2.34
2022-12-25T10:49:23.991Z,2.37
2022-12-25T10:51:52.798Z,2.39
2022-12-25T10:54:23.780Z,2.46
2022-12-25T10:56:57.336Z,2.52
2022-12-25T10:59:28.793Z,2.57
2022-12-25T11:02:05.168Z,2.61
2022-12-25T11:04:36.698Z,2.67
2022-12-25T11:07:08.846Z,2.76
2022-12-25T11:09:37.621Z,2.81
2022-12-25T11:12:06.778Z,2.81
2022-12-25T11:14:36.522Z,2.83
2022-12-25T11:17:09.495Z,2.85
2022-12-25T11:19:37.942Z,2.90
2022-12-25T11:22:18.561Z,2.93
2022-12-25T11:24:46.940Z,2.95
2022-12-25T11:27:26.959Z,3.01
2022-12-25T11:30:00.680Z,3.04
2022-12-25T11:32:32.413Z,3.09
2022-12-25T11:35:02.760Z,3.11
2022-12-25T11:37:36.371Z,3.14
2022-12-25T11:40:06.138Z,3.11
2022-12-25T11:42:37.656Z,3.15
2022-12-25T11:45:13.006Z,3.17
2022-12-25T11:47:46.103Z,3.23
2022-12-25T11:50:24.150Z,3.26
2022-12-25T11:52:53.976Z,3.27
2022-12-25T11:55:38.900Z,3.34
2022-12-25T11:58:15.787Z,3.42
2022-12-25T12:00:48.366Z,3.47
2022-12-25T12:03:22.687Z,3.53
2022-12-25T12:05:55.074Z,3.56
2022-12-25T12:08:23.459Z,3.57
2022-12-25T12:11:16.881Z,3.55
2022-12-25T12:14:06.453Z,3.54
2022-12-25T12:16:37.340Z,3.54
2022-12-25T12:19:13.684Z,3.56
2022-12-25T12:21:44.161Z,3.55
2022-12-25T12:24:17.582Z,3.58
2022-12-25T12:26:48.435Z,3.59
2022-12-25T12:29:26.727Z,3.62
2022-12-25T12:32:01.017Z,3.65
2022-12-25T12:34:31.056Z,3.69
2022-12-25T12:37:03.134Z,3.73
2022-12-25T12:39:36.467Z,3.76
2022-12-25T12:42:14.612Z,3.79
2022-12-25T12:44:43.905Z,3.84
2022-12-25T12:47:30.973Z,3.90
2022-12-25T12:50:00.876Z,3.93
2022-12-25T12:52:34.187Z,3.96
2022-12-25T12:55:06.784Z,3.98
2022-12-25T12:57:39.800Z,3.99
2022-12-25T13:00:13.266Z,4.00
2022-12-25T13:03:11.497Z,4.01
2022-12-25T13:05:48.043Z,4.02
2022-12-25T13:08:33.303Z,4.01
2022-12-25T13:11:09.600Z,4.03
2022-12-25T13:13:41.770Z,4.04
2022-12-25T13:16:22.228Z,4.07
2022-12-25T13:18:52.615Z,4.08
2022-12-25T13:21:25.639Z,4.08
2022-12-25T13:23:58.523Z,4.13
2022-12-25T13:26:28.075Z,4.16
2022-12-25T13:28:57.000Z,4.18
2022-12-25T13:31:27.093Z,4.20
2022-12-25T13:33:59.676Z,4.19
2022-12-25T13:36:36.082Z,4.17
2022-12-25T13:39:08.208Z,4.15
2022-12-25T13:42:01.004Z,4.11
2022-12-25T13:44:35.285Z,4.11
2022-12-25T13:47:16.606Z,4.10
2022-12-25T13:52:16.206Z,4.10
2022-12-25T13:54:58.343Z,4.10
2022-12-25T13:57:30.223Z,4.13
2022-12-25T13:59:59.920Z,4.17
2022-12-25T14:02:33.440Z,4.16
2022-12-25T14:05:01.863Z,4.18
2022-12-25T14:07:31.599Z,4.18
2022-12-25T14:10:02.693Z,4.18
2022-12-25T14:12:34.189Z,4.18
2022-12-25T14:15:04.788Z,4.18
2022-12-25T14:17:34.342Z,4.21
2022-12-25T14:20:08.244Z,4.19
2022-12-25T14:22:38.685Z,4.19
2022-12-25T14:25:16.106Z,4.19
2022-12-25T14:27:50.428Z,4.21
2022-12-25T14:30:19.246Z,4.20
2022-12-25T14:32:51.813Z,4.21
2022-12-25T14:35:23.510Z,4.23
2022-12-25T14:38:00.337Z,4.24
2022-12-25T14:40:31.443Z,4.23
2022-12-25T14:43:02.173Z,4.25
2022-12-25T14:45:33.671Z,4.26
2022-12-25T14:48:04.339Z,4.29
2022-12-25T14:50:37.308Z,4.31
2022-12-25T14:53:17.750Z,4.35
2022-12-25T14:55:49.354Z,4.39
2022-12-25T14:58:23.655Z,4.43
2022-12-25T15:00:56.256Z,4.43
2022-12-25T15:03:28.548Z,4.45
2022-12-25T15:06:02.395Z,4.47
2022-12-25T15:08:33.457Z,4.49
2022-12-25T15:11:03.391Z,4.51
2022-12-25T15:13:32.622Z,4.52
2022-12-25T15:16:06.969Z,4.52
2022-12-25T15:18:37.332Z,4.53
2022-12-25T15:21:05.844Z,4.55
2022-12-25T15:23:35.629Z,4.54
2022-12-25T15:26:04.098Z,4.55
2022-12-25T15:28:32.538Z,4.55
2022-12-25T15:31:00.998Z,4.58
2022-12-25T15:33:29.385Z,4.58
2022-12-25T15:35:57.784Z,4.61
2022-12-25T15:38:26.178Z,4.63
2022-12-25T15:40:56.118Z,4.66
2022-12-25T15:43:40.949Z,4.70
2022-12-25T15:46:10.701Z,4.70
2022-12-25T15:48:39.182Z,4.72
2022-12-25T15:51:07.552Z,4.75
2022-12-25T15:53:36.053Z,4.77
2022-12-25T15:56:06.477Z,4.79
2022-12-25T15:58:34.815Z,4.82
2022-12-25T16:01:03.298Z,4.84
2022-12-25T16:03:31.759Z,4.86
2022-12-25T16:06:00.180Z,4.88
2022-12-25T16:08:28.565Z,4.92
2022-12-25T16:10:56.915Z,4.95
2022-12-25T16:13:26.700Z,4.97
2022-12-25T16:15:55.326Z,4.97
2022-12-25T16:18:23.971Z,5.01
2022-12-25T16:20:53.082Z,5.02
2022-12-25T16:23:22.188Z,5.04
2022-12-25T16:25:51.096Z,5.06
2022-12-25T16:28:19.458Z,5.09
2022-12-25T16:30:49.249Z,5.12
2022-12-25T16:33:17.764Z,5.15
2022-12-25T16:35:47.131Z,5.17
2022-12-25T16:38:15.511Z,5.18
2022-12-25T16:40:44.564Z,5.19
2022-12-25T16:43:13.933Z,5.20
2022-12-25T16:45:44.791Z,5.21
2022-12-25T16:48:15.159Z,5.22
2022-12-25T16:50:43.665Z,5.23
2022-12-25T16:53:12.620Z,5.25
2022-12-25T16:55:41.051Z,5.28
2022-12-25T16:58:09.527Z,5.29
2022-12-25T17:00:37.882Z,5.32
2022-12-25T17:03:06.732Z,5.35
2022-12-25T17:05:36.750Z,5.37
2022-12-25T17:08:05.533Z,5.38
2022-12-25T17:10:33.860Z,5.41
2022-12-25T17:13:02.211Z,5.45
2022-12-25T17:15:30.602Z,5.47
2022-12-25T17:17:59.110Z,5.47
2022-12-25T17:20:27.470Z,5.49
2022-12-25T17:22:57.677Z,5.51
2022-12-25T17:25:26.791Z,5.52
2022-12-25T17:27:55.163Z,5.54
2022-12-25T17:30:23.703Z,5.56
2022-12-25T17:32:52.156Z,5.55
2022-12-25T17:35:21.441Z,5.56
2022-12-25T17:37:49.809Z,5.57
2022-12-25T17:40:19.742Z,5.59
2022-12-25T17:42:48.143Z,5.60
2022-12-25T17:45:16.572Z,5.62
2022-12-25T17:47:44.968Z,5.63
2022-12-25T17:50:13.383Z,5.63
2022-12-25T17:52:41.796Z,5.65
2022-12-25T17:55:10.821Z,5.70
2022-12-25T17:57:41.454Z,5.72
2022-12-25T18:00:10.573Z,5.73
2022-12-25T18:02:40.094Z,5.73
2022-12-25T18:05:09.678Z,5.74
2022-12-25T18:07:38.124Z,5.75
2022-12-25T18:10:07.586Z,5.77
2022-12-25T18:12:36.066Z,5.78
2022-12-25T18:15:06.415Z,5.79
2022-12-25T18:17:34.791Z,5.81
2022-12-25T18:20:03.363Z,5.84
2022-12-25T18:22:31.784Z,5.85
2022-12-25T18:25:00.231Z,5.86
2022-12-25T18:27:28.647Z,5.88
2022-12-25T18:29:57.169Z,5.91
2022-12-25T18:32:28.269Z,5.93
2022-12-25T18:34:57.063Z,5.94
2022-12-25T18:37:26.570Z,5.96
2022-12-25T18:39:55.040Z,5.97
2022-12-25T18:42:43.068Z,5.99
2022-12-25T18:45:13.297Z,5.99
2022-12-25T18:47:43.335Z,6.02
2022-12-25T18:50:12.256Z,6.04
2022-12-25T18:52:49.123Z,6.05
2022-12-25T18:55:20.052Z,6.08
2022-12-25T18:57:49.540Z,6.10
2022-12-25T19:00:18.535Z,6.10
2022-12-25T19:02:49.189Z,6.11
2022-12-25T19:05:18.098Z,6.12
2022-12-25T19:07:46.491Z,6.12
2022-12-25T19:10:14.880Z,6.13
2022-12-25T19:12:43.321Z,6.13
2022-12-25T19:15:12.309Z,6.13
2022-12-25T19:17:40.740Z,6.13
2022-12-25T19:20:12.139Z,6.14
2022-12-25T19:22:40.549Z,6.16
2022-12-25T19:25:09.721Z,6.15
2022-12-25T19:27:38.127Z,6.17
2022-12-25T19:30:08.360Z,6.17
2022-12-25T19:32:36.896Z,6.19
2022-12-25T19:35:06.349Z,6.19
2022-12-25T19:37:36.104Z,6.21
2022-12-25T19:40:05.055Z,6.22
2022-12-25T19:42:33.484Z,6.23
2022-12-25T19:45:03.070Z,6.23
2022-12-25T19:47:31.518Z,6.28
2022-12-25T19:50:03.113Z,6.30
2022-12-25T19:52:32.134Z,6.31
2022-12-25T19:55:01.952Z,6.33
2022-12-25T19:57:30.398Z,6.33
2022-12-25T19:59:58.761Z,6.33
2022-12-25T20:02:27.499Z,6.34
2022-12-25T20:04:56.709Z,6.37
2022-12-25T20:07:25.449Z,6.36
2022-12-25T20:09:55.666Z,6.35
2022-12-25T20:12:25.402Z,6.37
2022-12-25T20:14:53.754Z,6.42
2022-12-25T20:17:22.140Z,6.42
2022-12-25T20:19:50.524Z,6.44
2022-12-25T20:22:18.927Z,6.44
2022-12-25T20:24:49.066Z,6.44
2022-12-25T20:27:17.540Z,6.46
2022-12-25T20:29:47.297Z,6.47
2022-12-25T20:32:16.250Z,6.49
2022-12-25T20:34:44.703Z,6.53
2022-12-25T20:37:13.106Z,6.56
2022-12-25T20:39:41.724Z,6.59
2022-12-25T20:42:10.149Z,6.62
2022-12-25T20:44:39.075Z,6.61
2022-12-25T20:47:09.134Z,6.64
2022-12-25T20:49:37.893Z,6.69
2022-12-25T20:52:06.663Z,6.78
2022-12-25T20:54:35.218Z,6.72
2022-12-25T20:57:03.590Z,6.71
2022-12-25T20:59:37.113Z,6.71
2022-12-25T21:02:07.189Z,6.73
2022-12-25T21:04:37.335Z,6.74
2022-12-25T21:07:06.281Z,6.74
2022-12-25T21:09:34.701Z,6.72
2022-12-25T21:12:03.243Z,6.73
2022-12-25T21:14:31.639Z,6.78
2022-12-25T21:17:00.121Z,6.83
2022-12-25T21:19:28.593Z,6.82
2022-12-25T21:21:58.724Z,6.79
2022-12-25T21:24:29.691Z,6.84
2022-12-25T21:26:58.107Z,6.88
2022-12-25T21:29:26.547Z,6.88
2022-12-25T21:32:12.987Z,6.89
2022-12-25T21:34:41.431Z,6.88
2022-12-25T21:37:11.331Z,6.89
2022-12-25T21:39:39.870Z,6.91
2022-12-25T21:42:08.238Z,6.93
2022-12-25T21:44:36.684Z,6.96
2022-12-25T21:47:05.195Z,6.99
2022-12-25T21:49:50.838Z,7.06
2022-12-25T21:52:20.632Z,7.06
2022-12-25T21:54:51.976Z,7.06
2022-12-25T21:57:21.005Z,7.09
2022-12-25T21:59:49.431Z,7.09
2022-12-25T22:02:18.159Z,7.06
2022-12-25T22:04:46.722Z,7.12
2022-12-25T22:07:17.436Z,7.13
2022-12-25T22:09:47.836Z,7.15
2022-12-25T22:12:43.500Z,7.17
2022-12-25T22:15:12.342Z,7.13
2022-12-25T22:18:00.294Z,7.12
2022-12-25T22:20:31.098Z,7.12
2022-12-25T22:22:59.601Z,7.12
2022-12-25T22:25:29.565Z,7.13
2022-12-25T22:27:58.628Z,7.18
2022-12-25T22:30:28.653Z,7.28
2022-12-25T22:32:57.606Z,7.32
2022-12-25T22:35:25.970Z,7.41
2022-12-25T22:37:54.824Z,7.47
2022-12-25T22:40:23.369Z,7.50
2022-12-25T22:42:56.227Z,7.48
2022-12-25T22:45:24.753Z,7.58
2022-12-25T22:47:53.233Z,7.60
2022-12-25T22:50:21.617Z,7.63
2022-12-25T22:52:50.047Z,7.68
2022-12-25T22:55:20.204Z,7.72
2022-12-25T22:57:49.279Z,7.77
2022-12-25T23:00:19.132Z,7.82
2022-12-25T23:02:47.676Z,7.85
2022-12-25T23:05:16.252Z,7.85
2022-12-25T23:07:44.640Z,7.84
2022-12-25T23:10:13.017Z,7.89
2022-12-25T23:12:58.690Z,7.92
2022-12-25T23:15:28.913Z,7.92
2022-12-25T23:18:14.925Z,7.92
2022-12-25T23:21:00.512Z,7.99
2022-12-25T23:23:46.311Z,7.98
2022-12-25T23:26:15.715Z,7.99
2022-12-25T23:29:02.305Z,8.02
2022-12-25T23:31:34.584Z,8.05
2022-12-25T23:34:04.797Z,8.06
2022-12-25T23:36:33.835Z,8.08
2022-12-25T23:39:09.062Z,8.10
2022-12-25T23:41:39.185Z,8.10
2022-12-25T23:44:07.898Z,8.17
2022-12-25T23:46:37.871Z,8.15
2022-12-25T23:49:06.453Z,8.16
2022-12-25T23:51:36.504Z,8.16
2022-12-25T23:54:05.356Z,8.16
2022-12-25T23:56:34.186Z,8.15
2022-12-25T23:59:02.647Z,8.19
